createdAt,value
2023-05-10T00:00:33.323Z,7.40
2023-05-10T00:03:01.470Z,7.40
2023-05-10T00:05:29.437Z,7.40
2023-05-10T00:07:57.380Z,7.40
2023-05-10T00:10:26.925Z,7.30
2023-05-10T00:12:54.954Z,7.30
2023-05-10T00:15:23.110Z,7.30
2023-05-10T00:17:51.131Z,7.30
2023-05-10T00:20:19.243Z,7.30
2023-05-10T00:22:47.344Z,7.20
2023-05-10T00:25:15.287Z,7.20
2023-05-10T00:27:44.613Z,7.30
2023-05-10T00:30:12.822Z,7.20
2023-05-10T00:32:41.172Z,7.20
2023-05-10T00:35:10.064Z,7.20
2023-05-10T00:37:37.998Z,7.30
2023-05-10T00:40:07.346Z,7.20
2023-05-10T00:42:35.531Z,7.20
2023-05-10T00:45:05.489Z,7.10
2023-05-10T00:47:34.296Z,7.20
2023-05-10T00:50:02.603Z,7.20
2023-05-10T00:52:31.428Z,7.20
2023-05-10T00:54:59.825Z,7.20
2023-05-10T00:57:28.186Z,7.20
2023-05-10T00:59:56.217Z,7.30
2023-05-10T01:02:26.364Z,7.20
2023-05-10T01:04:55.040Z,7.20
2023-05-10T01:07:23.198Z,7.20
2023-05-10T01:09:51.209Z,7.20
2023-05-10T01:12:19.248Z,7.20
2023-05-10T01:14:47.724Z,7.20
2023-05-10T01:17:17.112Z,7.20
2023-05-10T01:19:46.568Z,7.10
2023-05-10T01:22:35.563Z,6.90
2023-05-10T01:25:45.766Z,7.00
2023-05-10T01:28:29.323Z,7.00
2023-05-10T01:31:23.150Z,6.90
2023-05-10T01:33:57.894Z,6.90
2023-05-10T01:36:32.616Z,6.80
2023-05-10T01:39:06.161Z,6.90
2023-05-10T01:41:46.876Z,6.80
2023-05-10T01:44:22.746Z,6.80
2023-05-10T01:46:57.983Z,6.80
2023-05-10T01:49:31.201Z,6.60
2023-05-10T01:52:06.009Z,6.60
2023-05-10T01:54:36.344Z,6.60
2023-05-10T01:57:08.434Z,6.50
2023-05-10T01:59:41.760Z,6.50
2023-05-10T02:02:12.757Z,6.50
2023-05-10T02:04:43.974Z,6.40
2023-05-10T02:07:12.522Z,6.40
2023-05-10T02:09:40.714Z,6.40
2023-05-10T02:12:09.628Z,6.50
2023-05-10T02:14:38.935Z,6.40
2023-05-10T02:17:08.048Z,6.40
2023-05-10T02:19:38.663Z,6.50
2023-05-10T02:22:09.209Z,6.50
2023-05-10T02:24:38.339Z,6.50
2023-05-10T02:27:06.990Z,6.50
2023-05-10T02:29:36.191Z,6.50
2023-05-10T02:32:05.264Z,6.50
2023-05-10T02:34:34.335Z,6.50
2023-05-10T02:37:05.232Z,6.40
2023-05-10T02:39:35.074Z,6.30
2023-05-10T02:42:04.287Z,6.20
2023-05-10T02:44:33.528Z,6.10
2023-05-10T02:47:01.490Z,6.10
2023-05-10T02:49:29.621Z,6.10
2023-05-10T02:52:02.055Z,6.00
2023-05-10T02:54:35.311Z,6.00
2023-05-10T02:57:07.875Z,6.00
2023-05-10T02:59:35.922Z,5.90
2023-05-10T03:02:04.943Z,5.70
2023-05-10T03:04:32.950Z,5.60
2023-05-10T03:07:00.992Z,5.70
2023-05-10T03:09:29.124Z,5.60
2023-05-10T03:12:05.889Z,5.60
2023-05-10T03:14:47.409Z,5.60
2023-05-10T03:17:23.145Z,5.60
2023-05-10T03:19:55.588Z,5.70
2023-05-10T03:22:28.752Z,5.70
2023-05-10T03:24:59.316Z,5.70
2023-05-10T03:27:31.453Z,5.70
2023-05-10T03:29:59.808Z,5.70
2023-05-10T03:32:28.127Z,5.80
2023-05-10T03:34:56.259Z,5.80
2023-05-10T03:37:24.205Z,5.90
2023-05-10T03:39:52.324Z,5.90
2023-05-10T03:42:20.444Z,6.00
2023-05-10T03:44:50.471Z,6.20
2023-05-10T03:47:18.501Z,6.20
2023-05-10T03:49:46.450Z,6.20
2023-05-10T03:52:14.462Z,6.20
2023-05-10T03:54:42.390Z,6.20
2023-05-10T03:57:10.541Z,6.10
2023-05-10T03:59:38.556Z,6.10
2023-05-10T04:02:07.955Z,6.20
2023-05-10T04:04:36.035Z,6.20
2023-05-10T04:07:04.712Z,6.10
2023-05-10T04:09:33.598Z,6.20
2023-05-10T04:12:03.242Z,6.10
2023-05-10T04:14:31.228Z,6.10
2023-05-10T04:16:59.180Z,6.00
2023-05-10T04:19:31.292Z,6.10
2023-05-10T04:22:00.710Z,6.20
2023-05-10T04:24:28.777Z,6.20
2023-05-10T04:26:57.857Z,6.10
2023-05-10T04:29:26.001Z,6.20
2023-05-10T04:31:54.306Z,6.30
2023-05-10T04:34:22.933Z,6.30
2023-05-10T04:36:52.198Z,6.30
2023-05-10T04:39:20.135Z,6.40
2023-05-10T04:41:48.118Z,6.20
2023-05-10T04:44:16.066Z,6.30
2023-05-10T04:46:44.080Z,6.40
2023-05-10T04:49:12.723Z,6.40
2023-05-10T04:51:40.741Z,6.50
2023-05-10T04:54:10.033Z,6.50
2023-05-10T04:56:37.967Z,6.40
2023-05-10T04:59:05.954Z,6.40
2023-05-10T05:01:34.058Z,6.60
2023-05-10T05:04:02.627Z,6.80
2023-05-10T05:06:30.540Z,6.90
2023-05-10T05:08:58.958Z,7.00
2023-05-10T05:11:28.396Z,7.00
2023-05-10T05:13:56.357Z,7.20
2023-05-10T05:16:24.551Z,7.30
2023-05-10T05:18:52.499Z,7.20
2023-05-10T05:21:22.299Z,7.30
2023-05-10T05:23:50.650Z,7.40
2023-05-10T05:26:18.642Z,7.30
2023-05-10T05:28:49.415Z,7.60
2023-05-10T05:31:17.427Z,7.60
2023-05-10T05:33:45.436Z,7.80
2023-05-10T05:36:13.464Z,8.10
2023-05-10T05:38:41.467Z,8.20
2023-05-10T05:41:09.392Z,8.40
2023-05-10T05:43:38.426Z,8.60
2023-05-10T05:46:08.415Z,8.70
2023-05-10T05:48:36.529Z,8.80
2023-05-10T05:51:07.086Z,8.90
2023-05-10T05:53:35.403Z,9.10
2023-05-10T05:56:04.597Z,9.40
2023-05-10T05:58:32.597Z,9.70
2023-05-10T06:01:00.618Z,10.20
2023-05-10T06:03:30.016Z,10.60
2023-05-10T06:05:58.152Z,11.00
2023-05-10T06:08:26.666Z,11.60
2023-05-10T06:10:54.644Z,12.00
2023-05-10T06:13:22.736Z,12.30
2023-05-10T06:15:50.765Z,13.00
2023-05-10T06:18:18.808Z,13.10
2023-05-10T06:20:48.270Z,13.30
2023-05-10T06:23:16.231Z,13.40
2023-05-10T06:25:44.206Z,13.60
2023-05-10T06:28:12.173Z,13.50
2023-05-10T06:30:40.111Z,13.70
2023-05-10T06:33:08.255Z,14.20
2023-05-10T06:35:36.241Z,14.30
2023-05-10T06:38:05.751Z,14.60
2023-05-10T06:40:33.834Z,14.90
2023-05-10T06:43:01.757Z,15.20
2023-05-10T06:45:29.768Z,15.20
2023-05-10T06:47:57.783Z,15.10
2023-05-10T06:50:25.826Z,15.00
2023-05-10T06:52:53.945Z,15.30
2023-05-10T06:55:23.432Z,15.30
2023-05-10T06:57:51.509Z,15.30
2023-05-10T07:00:20.967Z,14.90
2023-05-10T07:02:49.463Z,15.60
2023-05-10T07:05:18.249Z,16.10
2023-05-10T07:07:47.601Z,16.20
2023-05-10T07:10:15.725Z,16.20
2023-05-10T07:12:45.206Z,16.40
2023-05-10T07:15:13.846Z,15.80
2023-05-10T07:17:43.197Z,15.40
2023-05-10T07:20:13.833Z,14.90
2023-05-10T07:22:41.822Z,14.70
2023-05-10T07:25:10.430Z,14.80
2023-05-10T07:27:38.377Z,14.50
2023-05-10T07:30:09.207Z,13.40
2023-05-10T07:32:37.376Z,12.50
2023-05-10T07:35:06.423Z,12.10
2023-05-10T07:37:34.378Z,11.90
2023-05-10T07:40:02.953Z,11.70
2023-05-10T07:42:30.932Z,12.10
2023-05-10T07:44:58.931Z,12.20
2023-05-10T07:47:28.424Z,11.80
2023-05-10T07:49:56.392Z,11.80
2023-05-10T07:52:24.373Z,11.90
2023-05-10T07:54:52.881Z,12.10
2023-05-10T07:57:20.844Z,12.30
2023-05-10T07:59:48.792Z,12.20
2023-05-10T08:02:16.778Z,12.00
2023-05-10T08:04:46.494Z,11.80
2023-05-10T08:07:14.670Z,11.60
2023-05-10T08:09:42.612Z,11.40
2023-05-10T08:12:10.699Z,11.30
2023-05-10T08:14:38.642Z,11.20
2023-05-10T08:17:06.773Z,10.90
2023-05-10T08:19:34.827Z,10.80
2023-05-10T08:22:04.188Z,10.90
2023-05-10T08:24:32.120Z,11.20
2023-05-10T08:27:00.076Z,11.50
2023-05-10T08:29:32.699Z,11.40
2023-05-10T08:32:03.544Z,11.70
2023-05-10T08:34:32.242Z,11.90
2023-05-10T08:37:00.235Z,12.10
2023-05-10T08:39:30.890Z,12.60
2023-05-10T08:42:05.847Z,12.80
2023-05-10T08:44:36.250Z,13.00
2023-05-10T08:47:08.308Z,12.90
2023-05-10T08:49:36.447Z,12.50
2023-05-10T08:52:06.444Z,12.40
2023-05-10T08:54:36.459Z,12.10
2023-05-10T08:57:04.559Z,12.50
2023-05-10T08:59:32.875Z,12.60
2023-05-10T09:02:01.642Z,12.60
2023-05-10T09:04:30.267Z,12.80
2023-05-10T09:06:58.655Z,12.60
2023-05-10T09:09:27.985Z,12.70
2023-05-10T09:11:57.756Z,12.90
2023-05-10T09:14:26.850Z,12.60
2023-05-10T09:16:56.164Z,12.60
2023-05-10T09:19:24.232Z,12.50
2023-05-10T09:21:52.208Z,12.70
2023-05-10T09:24:20.203Z,12.40
2023-05-10T09:26:49.698Z,12.00
2023-05-10T09:29:19.164Z,12.10
2023-05-10T09:31:49.131Z,12.50
2023-05-10T09:34:22.148Z,12.70
2023-05-10T09:36:55.036Z,12.70
2023-05-10T09:39:31.611Z,12.70
2023-05-10T09:42:00.669Z,12.80
2023-05-10T09:44:30.004Z,13.20
2023-05-10T09:46:57.975Z,13.20
2023-05-10T09:49:25.948Z,13.40
2023-05-10T09:52:03.440Z,13.70
2023-05-10T09:54:31.758Z,13.40
2023-05-10T09:56:59.756Z,13.00
2023-05-10T09:59:30.053Z,13.10
2023-05-10T10:01:59.327Z,13.30
2023-05-10T10:04:28.036Z,13.60
2023-05-10T10:07:04.344Z,13.70
2023-05-10T10:09:32.828Z,13.10
2023-05-10T10:12:01.763Z,13.00
2023-05-10T10:14:31.423Z,13.10
2023-05-10T10:19:36.020Z,13.40
2023-05-10T10:22:04.105Z,13.90
2023-05-10T10:24:32.174Z,13.70
2023-05-10T10:27:09.773Z,13.60
2023-05-10T10:29:43.809Z,13.70
2023-05-10T10:32:21.021Z,13.70
2023-05-10T10:34:49.760Z,13.40
2023-05-10T10:37:17.991Z,13.40
2023-05-10T10:39:46.047Z,13.10
2023-05-10T10:42:14.033Z,13.40
2023-05-10T10:44:43.527Z,13.90
2023-05-10T10:47:25.808Z,14.10
2023-05-10T10:50:04.387Z,13.80
2023-05-10T10:52:38.429Z,13.80
2023-05-10T10:55:09.213Z,13.70
2023-05-10T10:57:48.032Z,13.80
2023-05-10T11:00:29.024Z,14.40
2023-05-10T11:03:00.055Z,14.80
2023-05-10T11:05:46.370Z,14.90
2023-05-10T11:08:17.394Z,15.00
2023-05-10T11:10:53.821Z,14.70
2023-05-10T11:13:31.254Z,14.80
2023-05-10T11:16:01.453Z,14.50
2023-05-10T11:18:30.864Z,14.60
2023-05-10T11:21:00.660Z,14.50
2023-05-10T11:23:33.534Z,14.30
2023-05-10T11:26:02.437Z,14.20
2023-05-10T11:28:30.424Z,14.10
2023-05-10T11:31:00.443Z,14.10
2023-05-10T11:33:28.489Z,14.40
2023-05-10T11:35:56.415Z,14.20
2023-05-10T11:38:24.376Z,14.00
2023-05-10T11:40:54.321Z,14.40
2023-05-10T11:43:29.084Z,14.80
2023-05-10T11:45:57.206Z,14.90
2023-05-10T11:48:26.573Z,14.60
2023-05-10T11:50:58.035Z,14.40
2023-05-10T11:53:27.985Z,14.60
2023-05-10T11:55:56.099Z,14.50
2023-05-10T11:58:25.027Z,14.40
2023-05-10T12:00:53.433Z,14.60
2023-05-10T12:03:21.817Z,14.40
2023-05-10T12:05:51.304Z,14.30
2023-05-10T12:08:23.531Z,14.30
2023-05-10T12:10:51.658Z,14.40
2023-05-10T12:13:21.422Z,14.90
2023-05-10T12:15:49.422Z,15.10
2023-05-10T12:18:26.609Z,14.90
2023-05-10T12:20:56.230Z,14.80
2023-05-10T12:23:24.246Z,14.80
2023-05-10T12:25:54.848Z,14.80
2023-05-10T12:28:22.889Z,15.00
2023-05-10T12:30:51.194Z,14.70
2023-05-10T12:33:19.762Z,14.70
2023-05-10T12:35:49.050Z,14.60
2023-05-10T12:38:33.830Z,14.70
2023-05-10T12:41:03.874Z,15.20
2023-05-10T12:43:32.524Z,15.20
2023-05-10T12:46:00.935Z,15.30
2023-05-10T12:48:29.712Z,15.70
2023-05-10T12:50:57.706Z,16.00
2023-05-10T12:53:25.712Z,15.60
2023-05-10T12:55:55.357Z,15.10
2023-05-10T12:58:34.797Z,15.10
2023-05-10T13:01:04.160Z,15.20
2023-05-10T13:03:32.360Z,15.20
2023-05-10T13:06:00.469Z,15.30
2023-05-10T13:08:30.667Z,15.40
2023-05-10T13:11:00.007Z,15.50
2023-05-10T13:13:28.170Z,15.20
2023-05-10T13:15:56.161Z,15.20
2023-05-10T13:18:25.144Z,15.20
2023-05-10T13:20:53.154Z,15.10
2023-05-10T13:23:21.063Z,15.00
2023-05-10T13:25:49.012Z,14.90
2023-05-10T13:28:18.320Z,14.90
2023-05-10T13:30:46.231Z,15.10
2023-05-10T13:33:14.236Z,15.10
2023-05-10T13:35:42.244Z,15.00
2023-05-10T13:38:10.262Z,15.00
2023-05-10T13:40:38.345Z,15.10
2023-05-10T13:43:06.343Z,15.30
2023-05-10T13:45:35.626Z,15.40
2023-05-10T13:48:03.597Z,15.60
2023-05-10T13:50:31.820Z,15.70
2023-05-10T13:52:59.802Z,15.30
2023-05-10T13:55:28.030Z,15.00
2023-05-10T13:57:55.974Z,15.00
2023-05-10T14:00:23.993Z,14.80
2023-05-10T14:02:53.503Z,15.00
2023-05-10T14:05:25.494Z,15.10
2023-05-10T14:07:54.620Z,14.70
2023-05-10T14:10:22.616Z,14.70
2023-05-10T14:12:51.544Z,14.50
2023-05-10T14:15:19.749Z,14.40
2023-05-10T14:17:47.893Z,14.70
2023-05-10T14:20:17.450Z,14.90
2023-05-10T14:22:45.400Z,15.10
2023-05-10T14:25:13.618Z,14.90
2023-05-10T14:27:41.589Z,14.70
2023-05-10T14:30:10.816Z,14.80
2023-05-10T14:32:39.042Z,15.10
2023-05-10T14:35:09.001Z,15.30
2023-05-10T14:37:40.373Z,15.10
2023-05-10T14:40:10.918Z,14.80
2023-05-10T14:42:38.892Z,14.80
2023-05-10T14:45:07.858Z,14.80
2023-05-10T14:47:35.880Z,14.70
2023-05-10T14:50:03.965Z,14.60
2023-05-10T14:52:34.152Z,14.60
2023-05-10T14:55:03.835Z,14.50
2023-05-10T14:57:32.157Z,14.60
2023-05-10T15:00:00.158Z,14.50
2023-05-10T15:02:28.637Z,14.50
2023-05-10T15:04:58.367Z,14.40
2023-05-10T15:07:26.896Z,14.40
2023-05-10T15:09:55.103Z,14.30
2023-05-10T15:12:24.378Z,14.40
2023-05-10T15:14:52.327Z,14.40
2023-05-10T15:17:20.426Z,14.40
2023-05-10T15:19:49.999Z,14.50
2023-05-10T15:22:19.750Z,14.80
2023-05-10T15:24:47.693Z,14.80
2023-05-10T15:27:15.688Z,14.60
2023-05-10T15:29:45.001Z,14.80
2023-05-10T15:32:13.105Z,14.80
2023-05-10T15:34:41.103Z,14.60
2023-05-10T15:37:09.191Z,14.60
2023-05-10T15:39:37.106Z,14.70
2023-05-10T15:42:05.272Z,14.70
2023-05-10T15:44:35.889Z,14.50
2023-05-10T15:47:05.271Z,14.50
2023-05-10T15:49:33.447Z,14.50
2023-05-10T15:52:01.414Z,14.70
2023-05-10T15:54:29.423Z,14.90
2023-05-10T15:56:57.458Z,15.10
2023-05-10T15:59:25.513Z,15.10
2023-05-10T16:01:53.916Z,14.80
2023-05-10T16:04:23.738Z,14.60
2023-05-10T16:06:51.723Z,14.60
2023-05-10T16:09:19.660Z,14.50
2023-05-10T16:11:47.596Z,14.40
2023-05-10T16:14:16.183Z,14.50
2023-05-10T16:16:44.310Z,14.40
2023-05-10T16:19:12.389Z,13.90
2023-05-10T16:21:41.798Z,13.80
2023-05-10T16:24:09.824Z,13.60
2023-05-10T16:26:40.975Z,13.50
2023-05-10T16:29:09.423Z,13.60
2023-05-10T16:31:37.439Z,13.90
2023-05-10T16:34:05.540Z,14.10
2023-05-10T16:36:33.960Z,13.90
2023-05-10T16:39:03.879Z,13.90
2023-05-10T16:41:34.639Z,14.10
2023-05-10T16:44:03.538Z,14.20
2023-05-10T16:46:31.676Z,14.30
2023-05-10T16:49:00.187Z,14.30
2023-05-10T16:51:29.131Z,14.40
2023-05-10T16:53:57.366Z,14.10
2023-05-10T16:56:26.693Z,14.10
2023-05-10T16:58:54.733Z,14.20
2023-05-10T17:01:24.958Z,14.20
2023-05-10T17:03:54.459Z,14.10
2023-05-10T17:06:22.492Z,14.20
2023-05-10T17:08:50.519Z,14.20
2023-05-10T17:11:19.850Z,14.10
2023-05-10T17:13:49.313Z,14.00
2023-05-10T17:16:17.531Z,13.80
2023-05-10T17:18:45.823Z,13.50
2023-05-10T17:21:13.927Z,13.40
2023-05-10T17:23:41.961Z,13.40
2023-05-10T17:26:10.137Z,13.40
2023-05-10T17:28:38.167Z,13.40
2023-05-10T17:31:07.566Z,13.50
2023-05-10T17:33:35.603Z,13.30
2023-05-10T17:36:03.772Z,13.40
2023-05-10T17:38:31.775Z,13.40
2023-05-10T17:40:59.690Z,13.30
2023-05-10T17:43:27.596Z,13.40
2023-05-10T17:45:55.666Z,13.30
2023-05-10T17:48:25.082Z,12.80
2023-05-10T17:50:53.051Z,12.80
2023-05-10T17:53:21.142Z,12.70
2023-05-10T17:55:49.554Z,12.80
2023-05-10T17:58:17.516Z,13.00
2023-05-10T18:00:46.273Z,13.10
2023-05-10T18:03:14.671Z,13.20
2023-05-10T18:05:44.124Z,13.30
2023-05-10T18:08:12.384Z,13.40
2023-05-10T18:10:41.446Z,13.40
2023-05-10T18:13:09.700Z,13.40
2023-05-10T18:15:37.754Z,13.30
2023-05-10T18:18:06.385Z,13.20
2023-05-10T18:20:34.457Z,13.10
2023-05-10T18:23:03.892Z,13.10
2023-05-10T18:25:31.947Z,13.20
2023-05-10T18:28:00.054Z,13.10
2023-05-10T18:30:28.161Z,13.10
2023-05-10T18:32:57.502Z,13.10
2023-05-10T18:35:25.558Z,13.20
2023-05-10T18:37:53.700Z,13.00
2023-05-10T18:40:23.144Z,13.00
2023-05-10T18:42:51.421Z,12.90
2023-05-10T18:45:19.650Z,12.90
2023-05-10T18:47:48.331Z,12.80
2023-05-10T18:50:17.582Z,12.90
2023-05-10T18:52:45.632Z,13.00
2023-05-10T18:55:13.895Z,12.90
2023-05-10T18:57:43.474Z,12.80
2023-05-10T19:00:13.181Z,12.80
2023-05-10T19:02:41.522Z,12.60
2023-05-10T19:05:10.247Z,12.60
2023-05-10T19:07:38.240Z,12.70
2023-05-10T19:10:07.263Z,12.60
2023-05-10T19:12:35.730Z,12.60
2023-05-10T19:15:05.486Z,12.70
2023-05-10T19:17:34.326Z,12.60
2023-05-10T19:20:03.871Z,12.70
2023-05-10T19:22:47.232Z,12.70
2023-05-10T19:25:20.303Z,12.70
2023-05-10T19:27:48.403Z,12.50
2023-05-10T19:30:17.776Z,12.40
2023-05-10T19:32:45.770Z,12.40
2023-05-10T19:35:15.068Z,12.40
2023-05-10T19:37:45.900Z,12.20
2023-05-10T19:40:15.589Z,12.20
2023-05-10T19:42:43.777Z,12.20
2023-05-10T19:45:15.390Z,12.10
2023-05-10T19:47:44.926Z,12.20
2023-05-10T19:50:13.780Z,12.20
2023-05-10T19:52:41.844Z,12.30
2023-05-10T19:55:10.126Z,12.30
2023-05-10T19:57:38.514Z,12.10
2023-05-10T20:00:07.983Z,11.90
2023-05-10T20:02:36.024Z,11.90
2023-05-10T20:05:05.893Z,11.80
2023-05-10T20:07:33.895Z,11.70
2023-05-10T20:10:02.810Z,11.70
2023-05-10T20:12:30.794Z,11.70
2023-05-10T20:14:58.948Z,11.60
2023-05-10T20:17:27.103Z,11.60
2023-05-10T20:19:55.130Z,11.60
2023-05-10T20:22:24.423Z,11.60
2023-05-10T20:24:54.304Z,11.60
2023-05-10T20:27:23.801Z,11.60
2023-05-10T20:29:51.848Z,11.60
2023-05-10T20:32:19.761Z,11.60
2023-05-10T20:34:47.740Z,11.50
2023-05-10T20:37:17.653Z,11.30
2023-05-10T20:39:49.085Z,11.40
2023-05-10T20:42:18.379Z,11.40
2023-05-10T20:44:46.785Z,11.30
2023-05-10T20:47:15.521Z,11.30
2023-05-10T20:49:44.046Z,11.30
2023-05-10T20:52:12.016Z,11.40
2023-05-10T20:54:40.023Z,11.30
2023-05-10T20:57:09.414Z,11.40
2023-05-10T20:59:37.308Z,11.30
2023-05-10T21:02:05.307Z,11.40
2023-05-10T21:04:33.343Z,11.50
2023-05-10T21:07:01.315Z,11.50
2023-05-10T21:09:29.261Z,11.40
2023-05-10T21:11:57.212Z,11.40
2023-05-10T21:14:26.684Z,11.40
2023-05-10T21:16:54.624Z,11.30
2023-05-10T21:19:22.578Z,11.30
2023-05-10T21:21:50.842Z,11.30
2023-05-10T21:24:18.872Z,11.20
2023-05-10T21:26:47.006Z,11.20
2023-05-10T21:29:14.998Z,11.00
2023-05-10T21:31:44.360Z,11.00
2023-05-10T21:34:13.863Z,11.00
2023-05-10T21:36:41.801Z,10.90
2023-05-10T21:39:09.705Z,11.00
2023-05-10T21:41:37.657Z,11.00
2023-05-10T21:44:05.859Z,11.00
2023-05-10T21:46:33.836Z,10.90
2023-05-10T21:49:03.149Z,10.90
2023-05-10T21:51:31.087Z,10.90
2023-05-10T21:53:59.023Z,11.00
2023-05-10T21:56:26.945Z,10.80
2023-05-10T21:58:54.916Z,10.90
2023-05-10T22:01:22.924Z,11.10
2023-05-10T22:03:50.965Z,11.20
2023-05-10T22:06:20.303Z,11.10
2023-05-10T22:08:48.493Z,11.00
2023-05-10T22:11:16.577Z,11.00
2023-05-10T22:13:44.542Z,10.90
2023-05-10T22:16:12.482Z,10.90
2023-05-10T22:18:40.873Z,11.00
2023-05-10T22:21:10.500Z,11.20
2023-05-10T22:23:39.801Z,11.10
2023-05-10T22:26:07.794Z,10.90
2023-05-10T22:28:35.738Z,10.80
2023-05-10T22:31:03.702Z,10.80
2023-05-10T22:33:31.616Z,11.00
2023-05-10T22:35:59.527Z,11.20
2023-05-10T22:38:27.509Z,11.20
2023-05-10T22:40:57.123Z,11.30
2023-05-10T22:43:25.090Z,11.20
2023-05-10T22:45:53.548Z,11.30
2023-05-10T22:48:21.984Z,11.40
2023-05-10T22:50:49.947Z,11.40
2023-05-10T22:53:17.926Z,11.40
2023-05-10T22:55:47.024Z,11.40
2023-05-10T22:58:16.606Z,11.40
2023-05-10T23:00:44.559Z,11.30
2023-05-10T23:03:12.571Z,11.40
2023-05-10T23:05:40.515Z,11.30
2023-05-10T23:08:08.456Z,11.30
2023-05-10T23:10:37.813Z,11.20
2023-05-10T23:13:05.786Z,11.20
2023-05-10T23:15:36.104Z,11.00
2023-05-10T23:18:05.760Z,10.90
2023-05-10T23:20:33.929Z,10.90
2023-05-10T23:23:01.876Z,10.90
2023-05-10T23:25:29.777Z,10.70
2023-05-10T23:27:57.921Z,10.30
2023-05-10T23:30:25.841Z,10.30
2023-05-10T23:32:55.415Z,10.00
2023-05-10T23:35:23.432Z,10.00
2023-05-10T23:37:51.406Z,9.70
2023-05-10T23:40:19.728Z,9.60
2023-05-10T23:42:48.060Z,9.40
2023-05-10T23:45:16.096Z,9.30
2023-05-10T23:47:44.172Z,9.20
2023-05-10T23:50:13.671Z,9.10
2023-05-10T23:52:41.634Z,9.10
2023-05-10T23:55:10.676Z,9.00
2023-05-10T23:57:39.077Z,8.90
